QUAO2: Spring River Near Quapaw, OK

                                SHEF ID:       QUAO2     Spring River near Quapaw, OK
STATION TYPE:
Regulating: Stage = 20.00, Flow = 33834

PRECIP STAGE STAGE(2) RIV-FLOW BAT-LOAD
in ft ft cfs volt
Ccp-Rev Ccp-Rev Ccp-Rev Ccp-Rev Ccp-Rev
(America/Chicago)
04/07 00:00 0.00 7.53 7.54 2289 12.39
04/07 01:00 0.00 7.51 7.51 2263 12.40
04/07 02:00 0.00 7.49 7.48 2237 12.04
04/07 03:00 0.00 7.46 7.46 2197 12.00
04/07 04:00 0.00 7.43 7.44 2159 12.36
04/07 05:00 0.00 7.41 7.41 2133 11.88
04/07 06:00 0.00 7.38 7.38 2095 11.84
04/07 07:00 0.00 7.36 7.32 2070 11.81
04/07 08:00 0.00 7.33 7.34 2032 11.93
04/07 09:00 0.00 7.30 7.31 1995 12.40
04/07 10:00 0.00 7.30 7.29 1995 13.11
04/07 11:00 0.00 7.27 7.26 1958 13.23
04/07 12:00 0.00 7.26 7.24 1946 13.44
04/07 13:00 0.00 7.22 7.15 1898 13.26
04/07 14:00 0.00 7.21 7.16 1886 13.11
04/07 15:00 0.00 7.19 7.15 1862 12.94
04/07 16:00 0.00 7.18 7.10 1850 12.87
04/07 17:00 0.00 7.16 7.08 1827 12.87
04/07 18:00 0.00 7.12 7.08 1780 12.83
04/07 19:00 0.00 7.12 7.06 1780 12.78
04/07 20:00 0.00 7.09 7.07 1746 12.31
04/07 21:00 0.00 7.08 7.07 1735 12.53
04/07 22:00 0.00 7.07 7.06 1723 12.50
04/07 23:00 0.00 7.06 7.04 1712 12.48
Data processed at Wed 08Apr2026 04:21 GMT

NOTICE: If you are parsing this page

Please convert to using our Data API. Starting early 2026 we will be migrating to: https://water.usace.army.mil with modern pages rendered in JavaScript. When this migration completes you will no longer be able to scrape this page! CWMSDataAPI (CDA)

Timeseries IDs (TSIDs)

TSIDs used from left to right in the data table
QUAP.Precip-Inc.Total.1Hour.1Hour.Ccp-Rev
QUAP.Stage.Inst.1Hour.0.Ccp-Rev
QUAP.Stage-Alt.Inst.1Hour.0.Ccp-Rev
QUAP.Flow.Inst.1Hour.0.Ccp-Rev
QUAP.Volt-Battery Load.Inst.1Hour.0.Ccp-Rev

                            

All information presented herein is the property of the government of the United States of America and may be revised or deleted at any time without prior notice. Dissemination of this information without the expressed written consent of the Public Affairs Office, Tulsa District U.S. Army Corps of Engineers is strictly prohibited. These data are gathered electronically and, as presented, have NOT undergone any form of quality control. These data are NOT guaranteed to be valid or correct.